Time;durP1;ratioP1;P1;durP2;ratioP2;P2;SDS_P1;SDS_P2;PMS_P1;PMS_P2;Temp;Humidity;BMP_temperature;BMP_pressure;BME280_temperature;BME280_humidity;BME280_pressure;Samples;Min_cycle;Max_cycle;Signal;HPM_P1;HPM_P2
2023/01/19 00:00:55;;;;;;;1.75;1.10;;;;;;;1.72;100.00;99742.72;5006389;28;20501;-87
2023/01/19 00:03:21;;;;;;;1.27;1.00;;;;;;;1.57;100.00;99757.22;5000263;28;21011;-87
2023/01/19 00:05:46;;;;;;;2.22;1.08;;;;;;;1.60;100.00;99751.00;5002411;28;20041;-87
2023/01/19 00:08:16;;;;;;;1.80;1.40;;;;;;;1.33;100.00;99752.47;5007545;28;20021;-87
2023/01/19 00:10:43;;;;;;;2.15;1.60;;;;;;;1.72;100.00;99756.50;5004466;28;20033;-88
2023/01/19 00:13:09;;;;;;;1.80;1.55;;;;;;;1.63;100.00;99756.63;5006120;28;20520;-88
2023/01/19 00:15:34;;;;;;;2.88;1.65;;;;;;;1.24;100.00;99744.31;5009294;28;20025;-87
2023/01/19 00:17:59;;;;;;;2.90;1.90;;;;;;;1.35;100.00;99745.50;5011735;28;20053;-89
2023/01/19 00:20:25;;;;;;;4.70;2.60;;;;;;;1.22;100.00;99730.06;5009463;28;20033;-89
2023/01/19 00:22:51;;;;;;;2.42;1.65;;;;;;;1.49;100.00;99730.56;5020385;28;20037;-89
2023/01/19 00:25:16;;;;;;;3.55;2.17;;;;;;;1.45;100.00;99751.69;5003556;28;20026;-88
2023/01/19 00:27:48;;;;;;;3.90;3.05;;;;;;;1.42;100.00;99759.50;5009460;28;20029;-89
2023/01/19 00:30:14;;;;;;;3.88;3.33;;;;;;;1.33;100.00;99747.78;5020738;28;20033;-87
2023/01/19 00:32:40;;;;;;;4.30;3.83;;;;;;;1.40;100.00;99753.53;5017982;28;20033;-87
2023/01/19 00:35:05;;;;;;;3.85;3.42;;;;;;;1.50;100.00;99757.78;4999161;28;20067;-87
2023/01/19 00:37:31;;;;;;;7.97;4.80;;;;;;;1.51;100.00;99764.09;5019585;28;20029;-87
2023/01/19 00:39:56;;;;;;;6.95;4.60;;;;;;;1.58;100.00;99758.81;5009583;28;20159;-87
2023/01/19 00:42:39;;;;;;;8.45;5.03;;;;;;;1.46;100.00;99761.59;5007097;28;20484;-86
2023/01/19 00:45:10;;;;;;;6.35;4.90;;;;;;;1.61;100.00;99758.94;5000797;28;20061;-87
2023/01/19 00:47:35;;;;;;;6.55;5.95;;;;;;;1.42;100.00;99758.72;5006492;28;20052;-86
2023/01/19 00:50:01;;;;;;;7.15;5.88;;;;;;;1.45;100.00;99748.94;5002524;28;20191;-87
2023/01/19 00:52:26;;;;;;;7.43;5.97;;;;;;;1.53;100.00;99757.09;5008490;28;20072;-87
2023/01/19 00:54:52;;;;;;;10.20;6.80;;;;;;;1.47;100.00;99747.44;5005933;28;20029;-86
2023/01/19 00:57:18;;;;;;;9.10;6.05;;;;;;;1.39;100.00;99757.44;5023999;28;20033;-87
2023/01/19 00:59:44;;;;;;;8.27;6.68;;;;;;;1.55;100.00;99745.72;5010921;28;20401;-86
2023/01/19 01:02:10;;;;;;;12.13;7.75;;;;;;;1.37;100.00;99726.66;5004079;28;20030;-87
2023/01/19 01:04:36;;;;;;;11.48;7.82;;;;;;;1.65;100.00;99753.53;5008272;28;20034;-87
2023/01/19 01:07:03;;;;;;;10.38;6.97;;;;;;;1.58;100.00;99742.25;5012297;28;20496;-86
2023/01/19 01:09:29;;;;;;;13.75;8.82;;;;;;;1.48;100.00;99760.09;5009293;28;20068;-86
2023/01/19 01:11:55;;;;;;;12.70;8.75;;;;;;;1.60;100.00;99731.69;5024735;28;20028;-86
2023/01/19 01:14:22;;;;;;;10.93;7.88;;;;;;;1.48;100.00;99740.00;5004898;28;20469;-87
2023/01/19 01:16:48;;;;;;;11.98;9.35;;;;;;;1.53;100.00;99737.00;5022656;28;20485;-86
2023/01/19 01:19:13;;;;;;;11.60;8.38;;;;;;;1.80;100.00;99760.31;5012151;28;20028;-87
2023/01/19 01:21:38;;;;;;;12.35;8.88;;;;;;;1.85;100.00;99756.50;5011869;28;21640;-87
2023/01/19 01:24:04;;;;;;;14.23;9.35;;;;;;;1.79;100.00;99744.91;5009507;28;20021;-87
2023/01/19 01:26:29;;;;;;;14.35;9.38;;;;;;;1.82;100.00;99764.31;5010842;28;20125;-86
2023/01/19 01:28:55;;;;;;;13.55;9.63;;;;;;;1.76;100.00;99757.44;5007591;28;20025;-86
2023/01/19 01:31:20;;;;;;;13.93;9.13;;;;;;;1.78;100.00;99763.41;5022436;28;20041;-86
2023/01/19 01:33:45;;;;;;;12.30;8.85;;;;;;;1.70;100.00;99760.78;5001796;28;20037;-86
2023/01/19 01:36:11;;;;;;;12.50;8.85;;;;;;;1.69;100.00;99753.66;5007540;28;20425;-86
2023/01/19 01:38:38;;;;;;;13.07;9.15;;;;;;;1.75;100.00;99766.03;5002036;28;20124;-86
2023/01/19 01:41:03;;;;;;;11.90;7.95;;;;;;;1.61;100.00;99755.38;5003181;28;20040;-86
2023/01/19 01:43:56;;;;;;;10.18;8.23;;;;;;;1.61;100.00;99763.66;5003505;28;20029;-86
2023/01/19 01:46:22;;;;;;;13.65;8.60;;;;;;;1.61;100.00;99769.16;5019389;28;20043;-86
2023/01/19 01:49:14;;;;;;;11.50;7.90;;;;;;;1.50;100.00;99752.28;4999822;28;20033;-86
2023/01/19 01:51:45;;;;;;;10.25;7.68;;;;;;;1.68;100.00;99763.06;4989644;28;20111;-86
2023/01/19 01:54:21;;;;;;;9.68;6.82;;;;;;;1.57;100.00;99751.69;5017725;28;20025;-86
2023/01/19 01:56:52;;;;;;;7.55;5.97;;;;;;;1.80;100.00;99772.16;5002385;28;20037;-86
2023/01/19 01:59:28;;;;;;;8.93;5.75;;;;;;;1.92;100.00;99778.78;4999434;28;20055;-86
2023/01/19 02:04:46;;;;;;;9.35;6.72;;;;;;;1.79;100.00;99765.03;5018483;28;20087;-87
2023/01/19 02:15:29;;;;;;;10.15;7.45;;;;;;;1.73;100.00;99771.94;5023184;28;20488;-86
2023/01/19 02:17:57;;;;;;;9.60;7.95;;;;;;;1.74;100.00;99772.72;5006848;28;20317;-87
2023/01/19 02:20:26;;;;;;;14.07;8.93;;;;;;;1.57;100.00;99768.25;5008417;28;20033;-87
2023/01/19 02:22:57;;;;;;;10.43;8.05;;;;;;;1.65;100.00;99748.03;5018615;28;20428;-86
2023/01/19 02:25:24;;;;;;;11.63;8.60;;;;;;;1.70;100.00;99782.84;5003559;28;20711;-87
2023/01/19 02:27:50;;;;;;;10.57;7.75;;;;;;;1.49;100.00;99758.94;5009268;28;20075;-87
2023/01/19 02:30:17;;;;;;;10.95;7.80;;;;;;;1.62;100.00;99755.03;5024096;28;20022;-87
2023/01/19 02:32:42;;;;;;;9.35;7.85;;;;;;;1.63;100.00;99778.69;5009427;28;20076;-88
2023/01/19 02:35:09;;;;;;;8.30;6.25;;;;;;;1.68;100.00;99772.16;5010198;28;21461;-87
2023/01/19 02:37:39;;;;;;;9.00;6.90;;;;;;;1.71;100.00;99770.66;5014567;28;20072;-87
2023/01/19 02:40:09;;;;;;;8.77;7.43;;;;;;;1.73;100.00;99777.44;5010516;28;20132;-87
2023/01/19 02:42:48;;;;;;;8.65;6.80;;;;;;;1.48;100.00;99764.81;5009026;28;20029;-86
2023/01/19 02:45:19;;;;;;;8.23;6.82;;;;;;;1.36;100.00;99755.34;5029418;28;20108;-87
2023/01/19 02:47:48;;;;;;;7.55;5.90;;;;;;;1.59;100.00;99766.75;5024594;28;20492;-87
2023/01/19 02:50:37;;;;;;;8.38;5.82;;;;;;;1.71;100.00;99771.47;5009412;28;20033;-87
2023/01/19 02:53:24;;;;;;;7.00;6.05;;;;;;;1.69;100.00;99776.53;5025574;28;20052;-88
2023/01/19 02:56:01;;;;;;;6.85;5.07;;;;;;;1.50;100.00;99773.53;5024681;28;20057;-87
2023/01/19 02:59:01;;;;;;;6.88;5.60;;;;;;;1.46;100.00;99770.66;5022813;28;20025;-87
2023/01/19 03:01:57;;;;;;;6.72;6.03;;;;;;;1.61;100.00;99785.72;4993857;28;20139;-87
2023/01/19 03:04:44;;;;;;;4.97;4.32;;;;;;;1.79;100.00;99786.28;5020103;28;20068;-87
2023/01/19 03:07:12;;;;;;;6.65;5.47;;;;;;;1.54;100.00;99786.28;5025091;28;20033;-88
2023/01/19 03:09:56;;;;;;;5.75;4.90;;;;;;;1.71;100.00;99782.50;5006950;28;20070;-87
2023/01/19 03:12:43;;;;;;;7.38;5.20;;;;;;;1.73;100.00;99794.00;5010008;28;20524;-87
2023/01/19 03:15:21;;;;;;;5.65;4.13;;;;;;;1.51;100.00;99783.41;5021595;28;20474;-87
2023/01/19 03:17:48;;;;;;;7.70;5.07;;;;;;;1.51;100.00;99791.69;5004916;28;20049;-87
2023/01/19 03:20:20;;;;;;;6.78;5.00;;;;;;;1.52;100.00;99787.75;5021680;28;20041;-87
2023/01/19 03:22:50;;;;;;;10.45;4.93;;;;;;;1.57;100.00;99762.72;5023746;28;20113;-87
2023/01/19 03:25:18;;;;;;;6.45;4.38;;;;;;;1.70;100.00;99782.84;5005178;28;20032;-87
2023/01/19 03:27:46;;;;;;;5.05;4.43;;;;;;;1.51;100.00;99767.66;5023356;28;20037;-87
2023/01/19 03:30:26;;;;;;;4.38;3.72;;;;;;;1.44;100.00;99780.44;5009703;28;20561;-87
2023/01/19 03:33:00;;;;;;;4.45;3.15;;;;;;;1.63;100.00;99788.94;5011129;28;20033;-86
2023/01/19 03:35:30;;;;;;;4.70;4.18;;;;;;;1.62;100.00;99787.31;5023359;28;20061;-87
2023/01/19 03:38:01;;;;;;;3.97;3.10;;;;;;;1.76;100.00;99787.78;5024450;28;20025;-86
2023/01/19 03:40:29;;;;;;;8.48;3.35;;;;;;;1.91;100.00;99785.47;5007992;28;20026;-87
2023/01/19 03:42:55;;;;;;;5.63;2.90;;;;;;;2.01;100.00;99790.53;5007196;28;20477;-86
2023/01/19 03:45:22;;;;;;;5.03;2.72;;;;;;;1.91;100.00;99778.00;5000864;28;20481;-87
2023/01/19 03:47:48;;;;;;;9.13;3.28;;;;;;;1.94;100.00;99791.13;5007338;28;20026;-87
2023/01/19 03:50:23;;;;;;;5.55;2.85;;;;;;;1.89;100.00;99785.81;5020841;28;20512;-87
2023/01/19 03:53:00;;;;;;;4.25;2.30;;;;;;;1.99;100.00;99798.34;5007642;28;20474;-87
2023/01/19 03:55:25;;;;;;;5.63;2.65;;;;;;;2.02;100.00;99800.41;5020706;28;20032;-87
2023/01/19 03:57:51;;;;;;;4.82;2.83;;;;;;;2.06;100.00;99801.31;5021896;28;20029;-87
2023/01/19 04:00:16;;;;;;;7.68;2.63;;;;;;;2.10;100.00;99790.41;5026870;28;20088;-87
2023/01/19 04:02:42;;;;;;;4.97;2.55;;;;;;;2.16;100.00;99784.28;5020561;28;20021;-87
2023/01/19 04:05:08;;;;;;;7.63;2.45;;;;;;;2.31;100.00;99790.25;5023387;28;20033;-87
2023/01/19 04:07:33;;;;;;;8.82;2.83;;;;;;;2.26;100.00;99779.44;5007074;28;20048;-87
2023/01/19 04:09:58;;;;;;;9.32;2.92;;;;;;;2.44;100.00;99800.09;5011022;28;20040;-86
2023/01/19 04:12:23;;;;;;;8.10;2.80;;;;;;;2.49;100.00;99801.81;5004472;28;20033;-86
2023/01/19 04:14:49;;;;;;;7.68;2.88;;;;;;;2.51;100.00;99808.63;5001659;28;20025;-86
2023/01/19 04:17:14;;;;;;;5.03;1.63;;;;;;;2.51;100.00;99805.84;5005286;28;20081;-86
2023/01/19 04:19:40;;;;;;;5.15;2.53;;;;;;;2.53;100.00;99805.47;5003965;28;20405;-86
2023/01/19 04:22:05;;;;;;;6.75;2.63;;;;;;;2.56;100.00;99800.06;5006440;28;20022;-86
2023/01/19 04:24:30;;;;;;;6.35;2.38;;;;;;;2.61;100.00;99796.25;5020099;28;20120;-86
2023/01/19 04:26:56;;;;;;;8.18;1.98;;;;;;;2.56;100.00;99782.69;5003511;28;20025;-86
2023/01/19 04:29:23;;;;;;;8.57;2.35;;;;;;;2.65;100.00;99806.25;5008937;28;20044;-86
2023/01/19 04:31:48;;;;;;;17.20;2.80;;;;;;;2.86;100.00;99810.78;5002893;28;20112;-87
2023/01/19 04:34:13;;;;;;;16.02;2.97;;;;;;;2.94;100.00;99811.78;5007425;28;20116;-86
2023/01/19 04:36:39;;;;;;;8.05;2.70;;;;;;;2.92;100.00;99803.84;5021838;28;20158;-86
2023/01/19 04:39:04;;;;;;;14.60;2.28;;;;;;;2.97;100.00;99811.06;5007609;28;20111;-86
2023/01/19 04:41:30;;;;;;;12.35;2.40;;;;;;;3.12;100.00;99813.09;5024790;28;20500;-86
2023/01/19 04:43:55;;;;;;;18.00;2.63;;;;;;;3.03;100.00;99795.84;5021382;28;20128;-87
2023/01/19 04:46:21;;;;;;;14.02;2.30;;;;;;;3.04;100.00;99797.47;5003719;28;20041;-85
2023/01/19 04:48:46;;;;;;;10.55;2.88;;;;;;;3.00;100.00;99811.19;5007697;28;20021;-86
2023/01/19 04:51:11;;;;;;;6.68;2.38;;;;;;;3.29;100.00;99825.78;5007415;28;20028;-87
2023/01/19 04:53:37;;;;;;;9.45;2.90;;;;;;;3.17;100.00;99820.31;5006051;28;20071;-87
2023/01/19 04:56:02;;;;;;;12.15;2.78;;;;;;;3.33;100.00;99831.41;5004415;28;20033;-86
2023/01/19 04:58:27;;;;;;;15.50;2.65;;;;;;;3.37;100.00;99846.97;5019570;28;20029;-87
2023/01/19 05:00:53;;;;;;;12.93;2.50;;;;;;;3.17;100.00;99820.31;5005534;28;20029;-86
2023/01/19 05:03:19;;;;;;;14.88;2.38;;;;;;;3.28;100.00;99849.06;5000713;28;20109;-86
2023/01/19 05:05:45;;;;;;;24.20;3.10;;;;;;;3.32;100.00;99847.19;5004724;28;20068;-87
2023/01/19 05:08:11;;;;;;;9.38;2.30;;;;;;;3.32;100.00;99858.25;5004034;28;20030;-87
2023/01/19 05:10:36;;;;;;;9.35;1.80;;;;;;;3.19;100.00;99840.13;5008002;28;20439;-86
2023/01/19 05:13:01;;;;;;;14.70;2.38;;;;;;;3.23;100.00;99852.09;5005958;28;20042;-86
2023/01/19 05:15:27;;;;;;;18.92;2.45;;;;;;;3.17;100.00;99859.03;5020785;28;20029;-86
2023/01/19 05:17:52;;;;;;;6.68;3.00;;;;;;;3.20;100.00;99864.66;5021607;28;20065;-87
2023/01/19 05:20:18;;;;;;;11.32;1.90;;;;;;;3.19;100.00;99874.13;5004834;28;20068;-86
2023/01/19 05:22:51;;;;;;;7.82;2.28;;;;;;;3.20;100.00;99869.38;5003997;28;20032;-86
2023/01/19 05:25:17;;;;;;;8.35;2.20;;;;;;;3.21;100.00;99876.53;5009123;28;20029;-86
2023/01/19 05:27:43;;;;;;;13.10;2.58;;;;;;;3.25;100.00;99877.44;5016834;28;20131;-86
2023/01/19 05:30:09;;;;;;;13.13;4.00;;;;;;;3.33;100.00;99895.84;5019582;28;20032;-86
2023/01/19 05:32:35;;;;;;;7.32;2.22;;;;;;;3.32;100.00;99883.16;5003299;28;20385;-86
2023/01/19 05:35:00;;;;;;;13.65;2.25;;;;;;;3.31;100.00;99881.56;5002080;28;20108;-86
2023/01/19 05:37:26;;;;;;;13.40;2.45;;;;;;;3.38;100.00;99890.03;5019200;28;20087;-86
2023/01/19 05:39:52;;;;;;;9.43;1.80;;;;;;;3.39;100.00;99885.31;5001961;28;20025;-86
2023/01/19 05:42:17;;;;;;;8.75;2.25;;;;;;;3.32;100.00;99877.63;5003074;28;20446;-86
2023/01/19 05:44:43;;;;;;;7.70;1.80;;;;;;;3.41;100.00;99899.59;5026249;28;20033;-86
2023/01/19 05:47:08;;;;;;;7.45;1.73;;;;;;;3.45;100.00;99909.59;5018259;28;20328;-86
2023/01/19 05:49:34;;;;;;;10.98;1.75;;;;;;;3.43;100.00;99913.88;5005106;28;20040;-86
2023/01/19 05:52:00;;;;;;;8.60;1.60;;;;;;;3.39;100.00;99921.25;4999704;28;20033;-85
2023/01/19 05:54:25;;;;;;;7.60;2.70;;;;;;;3.39;100.00;99911.00;5004373;28;20396;-86
2023/01/19 05:56:51;;;;;;;2.65;0.98;;;;;;;3.39;100.00;99919.31;5007952;28;20026;-86
2023/01/19 05:59:22;;;;;;;8.75;1.40;;;;;;;3.40;100.00;99923.69;5018209;28;20061;-86
2023/01/19 06:01:49;;;;;;;12.82;1.65;;;;;;;3.43;100.00;99928.50;5006600;28;20028;-86
2023/01/19 06:04:14;;;;;;;10.55;1.85;;;;;;;3.38;100.00;99931.53;5026409;28;20474;-86
2023/01/19 06:06:39;;;;;;;9.38;1.55;;;;;;;3.39;100.00;99933.13;5032691;28;20029;-85
2023/01/19 06:09:06;;;;;;;2.80;1.27;;;;;;;3.50;100.00;99938.16;5028164;28;20426;-85
2023/01/19 06:11:32;;;;;;;9.57;2.92;;;;;;;3.49;100.00;99939.34;5014379;28;20514;-85
2023/01/19 06:13:57;;;;;;;5.63;2.47;;;;;;;3.46;100.00;99949.94;4998914;28;20126;-86
2023/01/19 06:16:22;;;;;;;16.25;2.08;;;;;;;3.44;100.00;99957.78;5005024;28;20057;-86
2023/01/19 06:18:48;;;;;;;6.22;1.63;;;;;;;3.46;100.00;99952.72;5005985;28;20072;-86
2023/01/19 06:21:13;;;;;;;10.90;1.98;;;;;;;3.48;100.00;99966.19;5001607;28;20461;-86
2023/01/19 06:23:39;;;;;;;12.30;2.05;;;;;;;3.50;100.00;99968.59;5011040;28;20081;-86
2023/01/19 06:26:04;;;;;;;10.13;1.42;;;;;;;3.40;100.00;99967.94;5008156;28;20078;-86
2023/01/19 06:28:30;;;;;;;5.43;1.60;;;;;;;3.47;100.00;99981.19;5024917;28;20226;-85
2023/01/19 06:30:56;;;;;;;10.30;1.52;;;;;;;3.42;100.00;99971.16;5022123;28;20639;-86
2023/01/19 06:33:23;;;;;;;8.48;1.90;;;;;;;3.42;100.00;99992.50;5004442;28;20029;-86
2023/01/19 06:35:49;;;;;;;11.52;2.92;;;;;;;3.46;100.00;99991.44;5025251;28;20408;-85
2023/01/19 06:38:17;;;;;;;4.15;2.10;;;;;;;3.47;100.00;99995.81;5028191;28;20435;-85
2023/01/19 06:40:43;;;;;;;3.75;1.15;;;;;;;3.39;100.00;99987.66;5009216;28;20025;-86
2023/01/19 06:43:09;;;;;;;3.70;1.00;;;;;;;3.33;100.00;99989.88;5004787;28;20397;-85
2023/01/19 06:45:35;;;;;;;5.85;1.40;;;;;;;3.34;100.00;99997.00;5004104;28;20579;-86
2023/01/19 06:48:01;;;;;;;8.60;2.03;;;;;;;3.32;100.00;100009.59;5031677;28;20117;-85
2023/01/19 06:50:27;;;;;;;13.70;2.00;;;;;;;3.22;100.00;100010.88;5002422;28;20485;-86
2023/01/19 06:52:54;;;;;;;4.57;2.00;;;;;;;3.20;100.00;100011.22;5020204;28;20057;-86
2023/01/19 06:55:19;;;;;;;5.45;2.47;;;;;;;3.17;100.00;100002.84;5008108;28;20022;-86
2023/01/19 06:57:44;;;;;;;8.07;1.52;;;;;;;3.23;100.00;100026.31;5009568;28;20098;-86
2023/01/19 07:00:11;;;;;;;11.25;2.20;;;;;;;3.29;100.00;100032.41;5011819;28;20033;-85
2023/01/19 07:02:41;;;;;;;10.98;2.53;;;;;;;3.31;100.00;100028.16;4998579;28;20553;-86
2023/01/19 07:05:08;;;;;;;12.88;1.55;;;;;;;3.45;100.00;100036.84;5021560;28;20092;-82
2023/01/19 07:07:33;;;;;;;12.35;2.65;;;;;;;3.69;100.00;100046.25;5025752;28;20059;-83
2023/01/19 07:09:59;;;;;;;16.38;2.40;;;;;;;4.41;100.00;100048.19;5001385;28;20025;-83
2023/01/19 07:12:24;;;;;;;11.32;3.15;;;;;;;4.79;100.00;100063.41;5005969;28;20033;-84
2023/01/19 07:14:50;;;;;;;13.32;2.50;;;;;;;4.08;100.00;100060.38;4997770;28;20168;-79
2023/01/19 07:17:16;;;;;;;12.05;2.78;;;;;;;3.67;100.00;100065.16;5020394;28;20118;-79
2023/01/19 07:19:42;;;;;;;17.25;3.08;;;;;;;3.47;100.00;100066.94;5005774;28;20036;-79
2023/01/19 07:22:07;;;;;;;13.27;3.08;;;;;;;3.43;100.00;100071.56;5016400;28;20060;-79
2023/01/19 07:24:33;;;;;;;10.32;2.55;;;;;;;3.42;100.00;100086.56;5008458;28;20029;-79
2023/01/19 07:26:59;;;;;;;13.98;2.75;;;;;;;3.34;100.00;100091.06;5012520;28;20044;-80
2023/01/19 07:29:24;;;;;;;13.90;2.00;;;;;;;3.38;100.00;100091.97;5004777;28;20391;-79
2023/01/19 07:31:53;;;;;;;11.90;2.10;;;;;;;3.43;100.00;100102.00;5016109;28;20064;-79
2023/01/19 07:34:18;;;;;;;10.50;2.38;;;;;;;3.37;100.00;100095.91;5007099;28;20070;-79
2023/01/19 07:36:44;;;;;;;8.68;2.25;;;;;;;3.30;100.00;100103.97;5024531;28;20057;-79
2023/01/19 07:39:09;;;;;;;11.35;2.25;;;;;;;3.48;100.00;100112.84;5007140;28;20032;-79
2023/01/19 07:41:35;;;;;;;13.75;3.78;;;;;;;3.39;100.00;100109.38;5022075;28;20025;-80
2023/01/19 07:44:00;;;;;;;11.25;2.92;;;;;;;3.33;100.00;100111.59;5001373;28;20056;-80
2023/01/19 07:46:25;;;;;;;11.65;3.00;;;;;;;3.37;100.00;100120.81;5028219;28;20025;-79
2023/01/19 07:48:51;;;;;;;19.35;2.95;;;;;;;3.33;100.00;100116.31;5026523;28;20030;-80
2023/01/19 07:51:17;;;;;;;17.67;2.35;;;;;;;3.33;100.00;100122.66;5008460;28;20199;-79
2023/01/19 07:53:44;;;;;;;12.25;2.55;;;;;;;3.33;100.00;100127.38;5018369;28;20470;-79
2023/01/19 07:56:10;;;;;;;25.95;3.28;;;;;;;3.31;100.00;100137.97;5016751;28;20913;-80
2023/01/19 07:58:35;;;;;;;18.23;2.92;;;;;;;3.30;100.00;100148.22;5021459;28;20080;-80
2023/01/19 08:01:06;;;;;;;13.07;2.55;;;;;;;3.33;100.00;100153.09;5022724;28;20489;-79
2023/01/19 08:03:32;;;;;;;11.75;2.85;;;;;;;3.33;100.00;100150.31;5009076;28;20375;-79
2023/01/19 08:05:58;;;;;;;14.00;2.53;;;;;;;3.31;100.00;100160.94;5005672;28;20061;-79
2023/01/19 08:08:24;;;;;;;15.07;2.75;;;;;;;3.29;100.00;100163.22;5020407;28;20477;-79
2023/01/19 08:10:50;;;;;;;10.75;2.90;;;;;;;3.34;100.00;100174.06;5004781;28;20075;-80
2023/01/19 08:13:16;;;;;;;6.55;2.63;;;;;;;3.32;100.00;100175.56;5007378;28;20366;-80
2023/01/19 08:15:41;;;;;;;8.15;2.22;;;;;;;3.34;100.00;100181.56;5023326;28;20036;-79
2023/01/19 08:18:08;;;;;;;10.23;2.28;;;;;;;3.30;100.00;100178.66;5021890;28;20121;-79
2023/01/19 08:20:34;;;;;;;16.45;3.65;;;;;;;3.32;100.00;100192.16;5023895;28;20029;-79
2023/01/19 08:23:01;;;;;;;10.70;2.42;;;;;;;3.35;100.00;100189.50;5001912;28;20362;-79
2023/01/19 08:25:38;;;;;;;12.52;2.70;;;;;;;3.28;100.00;100183.72;5023071;28;20033;-79
2023/01/19 08:28:05;;;;;;;7.75;3.70;;;;;;;3.19;100.00;100202.41;5003897;28;20083;-79
2023/01/19 08:30:31;;;;;;;15.65;2.83;;;;;;;3.18;100.00;100200.78;5001195;28;20129;-79
2023/01/19 08:33:02;;;;;;;12.57;2.67;;;;;;;3.22;100.00;100201.69;4997760;28;20025;-80
2023/01/19 08:35:32;;;;;;;10.80;2.83;;;;;;;3.27;100.00;100212.56;5009753;28;20029;-79
2023/01/19 08:38:00;;;;;;;10.73;2.28;;;;;;;3.27;100.00;100223.63;5026490;28;20452;-80
2023/01/19 08:40:27;;;;;;;8.45;2.13;;;;;;;3.28;100.00;100229.94;5010314;28;20112;-80
2023/01/19 08:42:59;;;;;;;9.82;3.05;;;;;;;3.18;100.00;100232.03;5021782;28;20048;-79
2023/01/19 08:45:25;;;;;;;9.15;2.22;;;;;;;3.20;100.00;100226.13;5023285;28;20036;-79
2023/01/19 08:47:51;;;;;;;4.78;2.08;;;;;;;3.13;100.00;100207.34;5009602;28;20029;-80
2023/01/19 08:50:16;;;;;;;10.18;1.92;;;;;;;3.16;100.00;100216.91;5007848;28;20057;-79
2023/01/19 08:52:41;;;;;;;11.60;2.00;;;;;;;3.23;100.00;100231.00;5030240;28;20025;-79
2023/01/19 08:55:08;;;;;;;6.47;1.02;;;;;;;3.29;100.00;100229.63;5012161;28;20072;-79
2023/01/19 08:57:34;;;;;;;7.68;1.83;;;;;;;3.25;100.00;100225.91;5027146;28;20557;-79
2023/01/19 09:00:00;;;;;;;10.95;3.35;;;;;;;3.26;100.00;100231.09;5007863;28;20116;-80
2023/01/19 09:02:25;;;;;;;10.05;1.60;;;;;;;3.24;100.00;100224.28;5006699;28;20711;-79
2023/01/19 09:04:50;;;;;;;9.82;1.80;;;;;;;3.30;100.00;100228.44;5009355;28;20029;-79
2023/01/19 09:07:17;;;;;;;6.53;1.60;;;;;;;3.30;100.00;100231.22;5018964;28;20029;-79
2023/01/19 09:09:42;;;;;;;13.80;1.70;;;;;;;3.32;100.00;100236.41;5022408;28;20416;-80
2023/01/19 09:12:08;;;;;;;7.20;2.80;;;;;;;3.26;100.00;100241.34;5006875;28;20021;-80
2023/01/19 09:14:33;;;;;;;11.68;2.28;;;;;;;3.27;100.00;100242.97;5005809;28;20511;-80
2023/01/19 09:16:58;;;;;;;7.78;1.35;;;;;;;3.25;100.00;100248.84;5021086;28;20132;-80
2023/01/19 09:19:24;;;;;;;13.32;2.13;;;;;;;3.38;100.00;100257.16;5022198;28;20043;-80
2023/01/19 09:21:49;;;;;;;11.77;2.17;;;;;;;3.35;100.00;100255.91;5002052;28;20044;-80
2023/01/19 09:24:15;;;;;;;12.63;1.90;;;;;;;3.32;100.00;100248.28;4998980;28;20023;-80
2023/01/19 09:26:40;;;;;;;13.30;2.38;;;;;;;3.24;100.00;100251.94;5019232;28;20127;-80
2023/01/19 09:29:05;;;;;;;9.77;2.22;;;;;;;3.32;100.00;100264.88;5009373;28;20116;-80
2023/01/19 09:31:31;;;;;;;13.75;2.30;;;;;;;3.34;100.00;100270.88;5007843;28;20037;-80
2023/01/19 09:33:56;;;;;;;15.88;3.72;;;;;;;3.31;100.00;100266.03;5006793;28;20029;-80
2023/01/19 09:36:21;;;;;;;9.45;3.13;;;;;;;3.33;100.00;100274.81;5026626;28;20033;-79
2023/01/19 09:38:47;;;;;;;8.27;2.00;;;;;;;3.35;100.00;100275.28;5027628;28;20482;-79
2023/01/19 09:41:19;;;;;;;12.93;1.90;;;;;;;3.37;100.00;100281.25;5026800;28;20102;-80
2023/01/19 09:43:51;;;;;;;10.13;2.50;;;;;;;3.41;100.00;100290.47;5006929;28;20067;-80
2023/01/19 09:46:20;;;;;;;23.27;3.60;;;;;;;3.38;100.00;100285.63;5025842;28;20059;-79
2023/01/19 09:48:57;;;;;;;13.38;3.30;;;;;;;3.36;100.00;100285.16;5010243;28;20086;-80
2023/01/19 09:51:23;;;;;;;10.23;3.20;;;;;;;3.46;100.00;100284.72;5010464;28;20474;-80
2023/01/19 09:54:17;;;;;;;7.55;2.25;;;;;;;3.43;100.00;100290.94;5026375;28;20040;-79
2023/01/19 09:56:44;;;;;;;12.40;3.30;;;;;;;3.43;100.00;100299.22;5005471;28;20536;-79
2023/01/19 09:59:18;;;;;;;11.10;2.50;;;;;;;3.46;100.00;100298.56;5007029;28;20039;-79
2023/01/19 10:01:49;;;;;;;16.65;3.47;;;;;;;3.47;100.00;100297.38;5002757;28;20032;-79
2023/01/19 10:04:50;;;;;;;13.48;2.20;;;;;;;3.54;100.00;100305.16;5025513;28;20091;-79
2023/01/19 10:07:25;;;;;;;8.20;2.83;;;;;;;3.52;100.00;100293.63;4995509;28;20044;-79
2023/01/19 10:09:57;;;;;;;16.45;2.90;;;;;;;3.52;100.00;100301.09;4997486;28;20037;-80
2023/01/19 10:12:36;;;;;;;6.13;1.35;;;;;;;3.56;100.00;100307.56;5023747;28;20485;-80
2023/01/19 10:15:19;;;;;;;7.30;1.98;;;;;;;3.53;100.00;100302.72;5024257;28;20505;-80
2023/01/19 10:18:17;;;;;;;8.75;2.15;;;;;;;3.55;100.00;100303.97;5025558;28;20082;-80
2023/01/19 10:20:52;;;;;;;8.55;1.83;;;;;;;3.61;100.00;100310.09;5019598;28;20159;-79
2023/01/19 10:23:26;;;;;;;7.88;2.22;;;;;;;3.68;100.00;100310.34;5020207;28;20422;-79
2023/01/19 10:25:53;;;;;;;6.40;2.30;;;;;;;3.69;100.00;100306.44;5023825;28;20531;-79
2023/01/19 10:28:22;;;;;;;10.27;1.95;;;;;;;3.72;100.00;100311.25;5010803;28;20143;-79
2023/01/19 10:30:50;;;;;;;12.25;2.13;;;;;;;3.73;100.00;100317.59;5022139;28;20441;-79
2023/01/19 10:33:16;;;;;;;11.50;3.35;;;;;;;3.74;100.00;100308.94;5023205;28;20384;-79
2023/01/19 10:35:43;;;;;;;8.18;1.92;;;;;;;3.71;100.00;100303.28;5027039;28;20037;-79
2023/01/19 10:38:13;;;;;;;15.05;2.45;;;;;;;3.81;100.00;100309.16;5026587;28;20520;-80
2023/01/19 10:40:46;;;;;;;8.27;2.42;;;;;;;3.77;100.00;100316.56;5025687;28;20365;-80
2023/01/19 10:43:33;;;;;;;15.88;2.95;;;;;;;3.82;100.00;100316.34;5022086;28;20075;-80
2023/01/19 10:46:00;;;;;;;10.70;2.05;;;;;;;3.80;100.00;100318.66;5022335;28;20105;-80
2023/01/19 10:48:35;;;;;;;8.20;1.75;;;;;;;3.84;100.00;100308.50;5030778;28;20037;-79
2023/01/19 10:51:03;;;;;;;11.85;3.03;;;;;;;3.87;100.00;100324.41;5011628;28;20026;-79
2023/01/19 10:53:28;;;;;;;12.10;2.83;;;;;;;3.86;100.00;100310.94;5026494;28;20029;-79
2023/01/19 10:56:12;;;;;;;4.13;1.73;;;;;;;3.90;100.00;100327.63;5021324;28;20461;-79
2023/01/19 10:58:39;;;;;;;10.15;2.55;;;;;;;3.90;100.00;100317.38;5022717;28;20029;-80
2023/01/19 11:01:34;;;;;;;18.40;3.38;;;;;;;3.98;100.00;100327.50;5022815;28;20033;-80
2023/01/19 11:04:17;;;;;;;12.23;1.85;;;;;;;3.93;100.00;100318.66;5024927;28;20442;-79
2023/01/19 11:06:42;;;;;;;8.77;3.00;;;;;;;4.01;100.00;100328.81;5002886;28;20022;-79
2023/01/19 11:09:12;;;;;;;14.07;3.30;;;;;;;3.99;100.00;100322.81;5006415;28;20029;-79
2023/01/19 11:11:46;;;;;;;11.18;2.63;;;;;;;3.99;100.00;100318.06;5028225;28;20064;-79
2023/01/19 11:14:16;;;;;;;10.13;2.08;;;;;;;3.95;100.00;100313.56;5024859;28;20095;-79
2023/01/19 11:16:47;;;;;;;12.52;2.28;;;;;;;4.07;100.00;100321.88;5012876;28;20128;-79
2023/01/19 11:19:23;;;;;;;10.25;2.15;;;;;;;4.05;100.00;100326.97;5021107;28;20116;-79
2023/01/19 11:21:49;;;;;;;14.48;2.30;;;;;;;4.30;100.00;100324.13;5026028;28;20080;-79
2023/01/19 11:24:15;;;;;;;11.18;2.35;;;;;;;4.09;100.00;100330.66;5009608;28;20029;-80
2023/01/19 11:26:46;;;;;;;9.50;2.58;;;;;;;4.20;100.00;100330.97;5013325;28;20478;-80
2023/01/19 11:29:24;;;;;;;7.18;2.15;;;;;;;4.28;100.00;100339.16;5026150;28;20390;-80
2023/01/19 11:31:51;;;;;;;9.85;2.00;;;;;;;4.30;100.00;100335.22;5021362;28;20029;-80
2023/01/19 11:34:33;;;;;;;11.57;2.03;;;;;;;4.30;100.00;100338.00;5009631;28;20030;-80
2023/01/19 11:37:01;;;;;;;8.18;1.75;;;;;;;4.19;100.00;100335.69;5010645;28;20083;-80
2023/01/19 11:39:29;;;;;;;16.15;2.90;;;;;;;4.31;100.00;100336.84;5021958;28;20109;-80
2023/01/19 11:42:01;;;;;;;7.03;1.55;;;;;;;4.38;100.00;100339.81;5023440;28;20053;-80
2023/01/19 11:44:31;;;;;;;9.88;2.25;;;;;;;4.27;100.00;100337.53;5027277;28;20021;-80